createdAt,value
2019-02-06T00:01:26.862Z,21.50
2019-02-06T00:03:56.963Z,21.27
2019-02-06T00:06:27.058Z,22.83
2019-02-06T00:08:57.434Z,23.53
2019-02-06T00:11:29.134Z,27.23
2019-02-06T00:13:59.305Z,23.33
2019-02-06T00:16:30.377Z,24.13
2019-02-06T00:19:00.490Z,22.80
2019-02-06T00:21:30.474Z,22.33
2019-02-06T00:24:00.530Z,24.50
2019-02-06T00:26:30.551Z,21.90
2019-02-06T00:29:00.964Z,19.83
2019-02-06T00:31:31.006Z,17.90
2019-02-06T00:34:00.984Z,18.43
2019-02-06T00:36:31.191Z,17.53
2019-02-06T00:39:01.404Z,18.57
2019-02-06T00:41:31.410Z,22.23
2019-02-06T00:44:01.560Z,19.53
2019-02-06T00:46:31.788Z,19.53
2019-02-06T00:49:02.102Z,20.27
2019-02-06T00:51:32.458Z,21.07
2019-02-06T00:54:02.397Z,18.47
2019-02-06T00:56:32.643Z,18.93
2019-02-06T00:59:03.655Z,21.60
2019-02-06T01:01:33.626Z,20.00
2019-02-06T01:04:03.854Z,19.70
2019-02-06T01:06:34.270Z,17.97
2019-02-06T01:09:08.023Z,18.43
2019-02-06T01:11:38.183Z,18.87
2019-02-06T01:14:08.519Z,18.17
2019-02-06T01:16:38.507Z,17.57
2019-02-06T01:19:09.102Z,17.73
2019-02-06T01:21:39.503Z,18.07
2019-02-06T01:24:09.540Z,18.13
2019-02-06T01:26:39.623Z,18.17
2019-02-06T01:29:09.743Z,18.97
2019-02-06T01:31:39.797Z,21.60
2019-02-06T01:34:10.038Z,23.60
2019-02-06T01:36:40.176Z,23.27
2019-02-06T01:39:13.052Z,21.77
2019-02-06T01:41:43.107Z,19.23
2019-02-06T01:44:13.047Z,19.40
2019-02-06T01:46:43.055Z,18.93
2019-02-06T01:49:13.004Z,19.53
2019-02-06T01:51:43.540Z,22.27
2019-02-06T01:54:13.883Z,26.57
2019-02-06T01:56:44.708Z,25.83
2019-02-06T01:59:15.057Z,25.77
2019-02-06T02:01:45.565Z,23.47
2019-02-06T02:04:15.660Z,20.70
2019-02-06T02:06:45.738Z,19.90
2019-02-06T02:09:20.326Z,19.70
2019-02-06T02:11:50.707Z,19.77
2019-02-06T02:14:20.888Z,18.20
2019-02-06T02:16:51.187Z,19.63
2019-02-06T02:19:21.388Z,19.73
2019-02-06T02:21:51.632Z,17.30
2019-02-06T02:24:22.035Z,19.30
2019-02-06T02:26:52.143Z,20.67
2019-02-06T02:29:22.450Z,21.83
2019-02-06T02:31:53.103Z,21.80
2019-02-06T02:34:23.699Z,20.10
2019-02-06T02:36:54.081Z,18.77
2019-02-06T02:39:24.332Z,19.47
2019-02-06T02:41:54.410Z,19.93
2019-02-06T02:44:24.751Z,22.30
2019-02-06T02:46:54.898Z,25.50
2019-02-06T02:49:24.877Z,22.10
2019-02-06T02:51:54.798Z,24.43
2019-02-06T02:54:24.750Z,20.73
2019-02-06T02:56:54.729Z,18.97
2019-02-06T02:59:24.785Z,19.27
2019-02-06T03:02:01.962Z,18.77
2019-02-06T03:04:36.352Z,18.87
2019-02-06T03:07:06.414Z,18.70
2019-02-06T03:09:36.691Z,19.80
2019-02-06T03:12:06.850Z,20.63
2019-02-06T03:14:36.759Z,19.17
2019-02-06T03:17:07.009Z,20.50
2019-02-06T03:19:37.180Z,20.80
2019-02-06T03:22:07.898Z,21.00
2019-02-06T03:24:38.616Z,21.23
2019-02-06T03:27:08.802Z,20.77
2019-02-06T03:29:39.206Z,21.43
2019-02-06T03:32:09.728Z,19.80
2019-02-06T03:34:39.661Z,17.60
2019-02-06T03:37:09.680Z,17.17
2019-02-06T03:39:39.926Z,18.20
2019-02-06T03:42:09.982Z,17.03
2019-02-06T03:44:40.320Z,19.70
2019-02-06T03:47:10.457Z,20.67
2019-02-06T03:49:42.760Z,20.97
2019-02-06T03:52:12.319Z,20.33
2019-02-06T03:54:42.256Z,22.13
2019-02-06T03:57:12.218Z,23.33
2019-02-06T03:59:42.235Z,20.83
2019-02-06T04:02:12.469Z,19.93
2019-02-06T04:04:42.583Z,24.73
2019-02-06T04:07:13.073Z,24.07
2019-02-06T04:09:43.068Z,23.27
2019-02-06T04:12:13.089Z,23.40
2019-02-06T04:14:43.013Z,20.67
2019-02-06T04:17:13.375Z,22.13
2019-02-06T04:19:43.459Z,21.33
2019-02-06T04:22:13.550Z,19.40
2019-02-06T04:24:43.820Z,19.00
2019-02-06T04:27:14.591Z,17.87
2019-02-06T04:29:44.960Z,16.27
2019-02-06T04:32:15.379Z,17.17
2019-02-06T04:34:45.628Z,17.57
2019-02-06T04:37:16.032Z,19.53
2019-02-06T04:39:45.904Z,21.67
2019-02-06T04:42:15.856Z,21.57
2019-02-06T04:44:45.844Z,23.13
2019-02-06T04:47:16.393Z,22.87
2019-02-06T04:49:46.690Z,22.07
2019-02-06T04:52:17.729Z,22.63
2019-02-06T04:54:47.652Z,22.13
2019-02-06T04:57:17.640Z,23.87
2019-02-06T04:59:47.790Z,22.37
2019-02-06T05:02:17.868Z,24.53
2019-02-06T05:04:47.978Z,24.87
2019-02-06T05:07:19.601Z,22.13
2019-02-06T05:09:49.843Z,24.27
2019-02-06T05:12:20.137Z,25.30
2019-02-06T05:14:50.299Z,23.07
2019-02-06T05:17:20.365Z,23.03
2019-02-06T05:19:50.664Z,22.03
2019-02-06T05:22:20.761Z,23.30
2019-02-06T05:24:50.882Z,21.23
2019-02-06T05:27:21.038Z,24.23
2019-02-06T05:29:51.438Z,21.90
2019-02-06T05:32:21.964Z,26.33
2019-02-06T05:34:52.372Z,24.97
2019-02-06T05:37:31.713Z,23.20
2019-02-06T05:39:54.236Z,22.00
2019-02-06T05:42:24.224Z,20.80
2019-02-06T05:44:54.428Z,25.47
2019-02-06T05:47:24.973Z,22.03
2019-02-06T05:49:56.569Z,22.37
2019-02-06T05:52:26.839Z,22.03
2019-02-06T05:54:58.171Z,21.47
2019-02-06T05:57:28.514Z,20.97
2019-02-06T05:59:59.266Z,20.37
2019-02-06T06:02:29.479Z,19.97
2019-02-06T06:05:00.018Z,18.63
2019-02-06T06:07:30.916Z,19.23
2019-02-06T06:10:01.171Z,20.63
2019-02-06T06:12:31.216Z,18.87
2019-02-06T06:15:01.707Z,20.80
2019-02-06T06:17:32.019Z,21.27
2019-02-06T06:20:02.355Z,20.80
2019-02-06T06:22:32.273Z,20.43
2019-02-06T06:25:02.353Z,19.90
2019-02-06T06:27:32.441Z,19.40
2019-02-06T06:30:02.538Z,19.60
2019-02-06T06:32:33.058Z,22.20
2019-02-06T06:35:03.232Z,21.60
2019-02-06T06:37:33.303Z,21.77
2019-02-06T06:40:14.762Z,23.07
2019-02-06T06:42:45.230Z,25.13
2019-02-06T06:45:18.002Z,25.93
2019-02-06T06:47:48.044Z,24.57
2019-02-06T06:50:20.591Z,27.33
2019-02-06T06:52:50.954Z,28.60
2019-02-06T06:55:21.262Z,32.20
2019-02-06T06:57:51.853Z,32.40
2019-02-06T07:00:27.619Z,28.17
2019-02-06T07:02:57.978Z,27.60
2019-02-06T07:05:28.444Z,26.60
2019-02-06T07:08:09.141Z,27.57
2019-02-06T07:10:30.741Z,27.27
2019-02-06T07:13:01.059Z,29.53
2019-02-06T07:15:42.917Z,30.07
2019-02-06T07:18:13.291Z,31.57
2019-02-06T07:20:44.174Z,36.23
2019-02-06T07:23:14.411Z,34.37
2019-02-06T07:25:44.723Z,31.80
2019-02-06T07:28:15.036Z,30.70
2019-02-06T07:30:45.291Z,29.90
2019-02-06T07:33:15.520Z,33.40
2019-02-06T07:35:45.598Z,38.33
2019-02-06T07:38:23.889Z,33.53
2019-02-06T07:40:48.319Z,33.17
2019-02-06T07:43:18.604Z,37.27
2019-02-06T07:45:48.572Z,31.27
2019-02-06T07:48:18.749Z,31.50
2019-02-06T07:50:48.821Z,30.83
2019-02-06T07:53:19.274Z,29.93
2019-02-06T07:55:49.646Z,32.93
2019-02-06T07:58:19.736Z,34.07
2019-02-06T08:00:50.316Z,34.57
2019-02-06T08:03:21.450Z,32.80
2019-02-06T08:05:52.168Z,29.00
2019-02-06T08:08:22.096Z,27.23
2019-02-06T08:10:52.225Z,27.20
2019-02-06T08:13:22.231Z,27.97
2019-02-06T08:15:52.595Z,27.30
2019-02-06T08:18:22.934Z,25.07
2019-02-06T08:20:53.171Z,24.23
2019-02-06T08:23:23.280Z,24.97
2019-02-06T08:25:54.825Z,24.57
2019-02-06T08:28:25.264Z,24.20
2019-02-06T08:30:56.088Z,22.20
2019-02-06T08:33:26.279Z,22.67
2019-02-06T08:35:56.341Z,22.53
2019-02-06T08:38:26.476Z,23.30
2019-02-06T08:40:56.503Z,21.57
2019-02-06T08:43:26.617Z,22.07
2019-02-06T08:45:56.770Z,22.03
2019-02-06T08:48:27.156Z,20.43
2019-02-06T08:50:57.317Z,19.97
2019-02-06T08:53:39.714Z,18.67
2019-02-06T08:56:11.781Z,19.73
2019-02-06T08:58:41.747Z,19.53
2019-02-06T09:01:11.823Z,19.70
2019-02-06T09:03:41.967Z,17.87
2019-02-06T09:06:12.120Z,19.57
2019-02-06T09:08:42.286Z,20.20
2019-02-06T09:11:15.748Z,19.53
2019-02-06T09:13:45.794Z,18.67
2019-02-06T09:16:15.785Z,19.23
2019-02-06T09:18:46.052Z,20.63
2019-02-06T09:21:16.172Z,20.53
2019-02-06T09:23:46.039Z,19.43
2019-02-06T09:26:16.137Z,19.67
2019-02-06T09:28:46.266Z,20.03
2019-02-06T09:31:16.884Z,20.67
2019-02-06T09:33:46.887Z,20.30
2019-02-06T09:36:17.134Z,20.87
2019-02-06T09:38:47.724Z,21.00
2019-02-06T09:41:17.865Z,21.67
2019-02-06T09:43:47.987Z,20.03
2019-02-06T09:46:18.437Z,20.70
2019-02-06T09:48:49.359Z,20.47
2019-02-06T09:51:19.471Z,19.57
2019-02-06T09:53:49.968Z,21.37
2019-02-06T09:56:20.028Z,20.23
2019-02-06T09:58:50.339Z,22.47
2019-02-06T10:01:21.528Z,21.33
2019-02-06T10:03:52.000Z,19.73
2019-02-06T10:06:22.397Z,20.90
2019-02-06T10:08:52.843Z,21.60
2019-02-06T10:11:22.866Z,21.27
2019-02-06T10:13:52.957Z,23.37
2019-02-06T10:16:22.917Z,20.63
2019-02-06T10:18:53.002Z,21.27
2019-02-06T10:21:23.128Z,22.33
2019-02-06T10:23:54.001Z,22.27
2019-02-06T10:26:24.241Z,22.90
2019-02-06T10:28:55.642Z,19.60
2019-02-06T10:31:25.901Z,21.83
2019-02-06T10:33:56.248Z,21.53
2019-02-06T10:36:26.545Z,20.63
2019-02-06T10:38:56.432Z,22.17
2019-02-06T10:41:26.976Z,21.93
2019-02-06T10:43:57.071Z,20.53
2019-02-06T10:46:27.051Z,20.63
2019-02-06T10:48:57.479Z,22.03
2019-02-06T10:51:27.803Z,22.67
2019-02-06T10:53:58.300Z,22.93
2019-02-06T10:56:28.579Z,21.33
2019-02-06T10:58:58.909Z,21.63
2019-02-06T11:01:30.536Z,20.03
2019-02-06T11:04:00.735Z,22.03
2019-02-06T11:06:31.313Z,21.40
2019-02-06T11:09:01.411Z,21.47
2019-02-06T11:11:31.499Z,20.67
2019-02-06T11:14:01.797Z,22.73
2019-02-06T11:16:32.108Z,21.70
2019-02-06T11:19:02.723Z,23.57
2019-02-06T11:21:32.869Z,21.43
2019-02-06T11:24:03.094Z,20.33
2019-02-06T11:26:33.197Z,23.50
2019-02-06T11:29:03.392Z,20.00
2019-02-06T11:31:33.520Z,22.20
2019-02-06T11:34:05.622Z,22.00
2019-02-06T11:36:35.811Z,22.13
2019-02-06T11:39:12.667Z,20.90
2019-02-06T11:41:42.697Z,22.33
2019-02-06T11:44:13.294Z,22.83
2019-02-06T11:46:44.010Z,22.90
2019-02-06T11:49:15.282Z,23.13
2019-02-06T11:51:46.008Z,22.80
2019-02-06T11:54:16.166Z,22.57
2019-02-06T11:56:46.528Z,22.73
2019-02-06T11:59:17.119Z,22.70
2019-02-06T12:01:51.799Z,23.37
2019-02-06T12:04:22.299Z,23.53
2019-02-06T12:06:52.482Z,23.80
2019-02-06T12:09:22.897Z,24.57
2019-02-06T12:11:53.483Z,24.33
2019-02-06T12:14:24.069Z,23.77
2019-02-06T12:16:54.349Z,24.57
2019-02-06T12:19:25.011Z,22.87
2019-02-06T12:21:55.129Z,26.03
2019-02-06T12:24:25.314Z,24.03
2019-02-06T12:26:55.929Z,24.43
2019-02-06T12:29:26.397Z,25.63
2019-02-06T12:31:56.378Z,24.07
2019-02-06T12:34:26.638Z,25.70
2019-02-06T12:36:56.875Z,24.50
2019-02-06T12:39:27.127Z,24.73
2019-02-06T12:41:57.721Z,25.13
2019-02-06T12:44:28.426Z,24.03
2019-02-06T12:46:59.427Z,24.30
2019-02-06T12:49:29.752Z,25.63
2019-02-06T12:51:59.989Z,25.63
2019-02-06T12:54:30.238Z,24.80
2019-02-06T12:57:00.323Z,24.87
2019-02-06T12:59:30.334Z,25.43
2019-02-06T13:02:00.479Z,24.70
2019-02-06T13:04:30.702Z,23.53
2019-02-06T13:07:01.287Z,24.47
2019-02-06T13:09:32.244Z,25.07
2019-02-06T13:12:02.543Z,24.97
2019-02-06T13:14:32.551Z,26.77
2019-02-06T13:17:02.623Z,23.30
2019-02-06T13:19:32.776Z,24.87
2019-02-06T13:22:03.419Z,25.80
2019-02-06T13:24:33.807Z,25.37
2019-02-06T13:27:04.768Z,24.17
2019-02-06T13:29:34.937Z,25.83
2019-02-06T13:32:05.283Z,25.37
2019-02-06T13:34:35.724Z,26.43
2019-02-06T13:37:06.266Z,25.40
2019-02-06T13:39:36.379Z,24.30
2019-02-06T13:42:06.786Z,23.00
2019-02-06T13:44:37.086Z,23.47
2019-02-06T13:47:07.171Z,24.27
2019-02-06T13:49:37.486Z,25.00
2019-02-06T13:52:08.028Z,24.70
2019-02-06T13:54:38.068Z,23.97
2019-02-06T13:57:09.590Z,23.77
2019-02-06T13:59:39.922Z,23.67
2019-02-06T14:02:10.072Z,23.90
2019-02-06T14:04:40.114Z,25.03
2019-02-06T14:07:10.290Z,25.40
2019-02-06T14:09:41.012Z,24.33
2019-02-06T14:12:13.538Z,24.57
2019-02-06T14:14:43.562Z,24.67
2019-02-06T14:17:13.681Z,23.90
2019-02-06T14:19:44.151Z,24.20
2019-02-06T14:22:14.820Z,24.43
2019-02-06T14:25:09.345Z,24.63
2019-02-06T14:28:12.414Z,26.60
2019-02-06T14:31:30.596Z,23.63
2019-02-06T14:34:27.149Z,25.87
2019-02-06T14:37:39.905Z,24.50
2019-02-06T14:40:32.236Z,23.90
2019-02-06T14:43:27.699Z,26.77
2019-02-06T14:46:33.665Z,25.67
2019-02-06T14:49:43.966Z,24.07
2019-02-06T14:52:59.179Z,27.63
2019-02-06T14:55:58.096Z,23.53
2019-02-06T14:59:10.694Z,23.83
2019-02-06T15:02:15.679Z,25.70
2019-02-06T15:05:14.867Z,27.13
2019-02-06T15:08:10.744Z,25.53
2019-02-06T15:11:03.039Z,25.90
2019-02-06T15:14:14.791Z,26.93
2019-02-06T15:17:32.149Z,25.87
2019-02-06T15:20:26.696Z,26.07
2019-02-06T15:23:32.574Z,25.40
2019-02-06T15:26:30.525Z,24.27
2019-02-06T15:29:41.567Z,24.77
2019-02-06T15:33:00.375Z,25.73
2019-02-06T15:36:11.166Z,24.03
2019-02-06T15:39:13.268Z,25.97
2019-02-06T15:42:20.554Z,27.37
2019-02-06T15:45:19.460Z,24.80
2019-02-06T15:48:11.450Z,25.23
2019-02-06T15:51:04.769Z,26.73
2019-02-06T15:54:00.146Z,27.73
2019-02-06T15:57:11.634Z,27.13
2019-02-06T16:00:12.119Z,26.33
2019-02-06T16:03:28.430Z,27.70
2019-02-06T16:06:40.573Z,26.20
2019-02-06T16:09:49.895Z,27.57
2019-02-06T16:13:11.454Z,25.57
2019-02-06T16:16:19.165Z,27.33
2019-02-06T16:19:21.125Z,26.23
2019-02-06T16:22:04.121Z,26.47
2019-02-06T16:25:14.644Z,28.13
2019-02-06T16:28:03.419Z,28.53
2019-02-06T16:31:21.033Z,28.50
2019-02-06T16:34:37.253Z,29.93
2019-02-06T16:37:52.318Z,35.83
2019-02-06T16:40:57.639Z,38.97
2019-02-06T16:44:14.697Z,28.70
2019-02-06T16:47:47.919Z,25.53
2019-02-06T16:50:29.393Z,27.17
2019-02-06T16:53:49.252Z,29.47
2019-02-06T16:56:31.931Z,26.43
2019-02-06T16:59:24.494Z,26.83
2019-02-06T17:02:38.188Z,28.53
2019-02-06T17:05:48.209Z,26.40
2019-02-06T17:08:49.409Z,30.50
2019-02-06T17:11:45.937Z,28.37
2019-02-06T17:14:55.583Z,28.63
2019-02-06T17:18:03.570Z,26.23
2019-02-06T17:21:10.308Z,26.67
2019-02-06T17:24:16.467Z,28.53
2019-02-06T17:27:00.657Z,26.90
2019-02-06T17:30:06.305Z,27.00
2019-02-06T17:33:00.650Z,26.17
2019-02-06T17:35:45.256Z,27.63
2019-02-06T17:38:40.936Z,28.13
2019-02-06T17:41:50.561Z,28.70
2019-02-06T17:44:54.881Z,26.97
2019-02-06T17:47:35.621Z,28.47
2019-02-06T17:51:02.764Z,30.30
2019-02-06T17:53:58.274Z,28.10
2019-02-06T17:56:28.428Z,26.87
2019-02-06T17:58:58.845Z,27.80
2019-02-06T18:01:44.435Z,27.53
2019-02-06T18:04:29.763Z,29.63
2019-02-06T18:07:00.006Z,27.80
2019-02-06T18:09:31.689Z,27.10
2019-02-06T18:12:01.962Z,28.70
2019-02-06T18:14:32.364Z,28.53
2019-02-06T18:17:04.455Z,27.60
2019-02-06T18:19:39.436Z,29.37
2019-02-06T18:22:09.993Z,29.30
2019-02-06T18:24:40.385Z,27.37
2019-02-06T18:27:12.486Z,27.90
2019-02-06T18:29:42.607Z,27.87
2019-02-06T18:32:12.519Z,27.47
2019-02-06T18:34:43.080Z,28.07
2019-02-06T18:37:13.149Z,28.23
2019-02-06T18:39:43.198Z,27.93
2019-02-06T18:42:13.149Z,28.60
2019-02-06T18:44:43.387Z,29.30
2019-02-06T18:47:13.435Z,27.70
2019-02-06T18:49:43.492Z,28.20
2019-02-06T18:52:20.475Z,28.77
2019-02-06T18:54:46.323Z,25.93
2019-02-06T18:57:16.572Z,29.73
2019-02-06T18:59:46.876Z,30.63
2019-02-06T19:02:17.226Z,29.97
2019-02-06T19:04:47.462Z,29.07
2019-02-06T19:07:17.561Z,29.30
2019-02-06T19:09:47.513Z,29.70
2019-02-06T19:12:17.592Z,30.77
2019-02-06T19:14:47.934Z,29.60
2019-02-06T19:17:18.053Z,30.00
2019-02-06T19:19:48.465Z,30.27
2019-02-06T19:22:18.799Z,33.83
2019-02-06T19:24:49.320Z,36.23
2019-02-06T19:27:19.555Z,45.03
2019-02-06T19:29:50.018Z,34.33
2019-02-06T19:32:20.118Z,32.03
2019-02-06T19:34:51.684Z,29.57
2019-02-06T19:37:21.797Z,28.80
2019-02-06T19:39:52.460Z,31.17
2019-02-06T19:42:22.806Z,30.60
2019-02-06T19:44:52.872Z,29.03
2019-02-06T19:47:23.502Z,32.17
2019-02-06T19:49:53.735Z,34.20
2019-02-06T19:52:24.123Z,31.97
2019-02-06T19:54:55.214Z,29.77
2019-02-06T19:57:26.115Z,28.50
2019-02-06T19:59:56.590Z,27.53
2019-02-06T20:02:26.779Z,27.87
2019-02-06T20:04:57.073Z,28.60
2019-02-06T20:07:27.485Z,27.33
2019-02-06T20:09:58.016Z,27.33
2019-02-06T20:12:28.530Z,28.43
2019-02-06T20:14:59.266Z,29.00
2019-02-06T20:17:29.463Z,28.73
2019-02-06T20:19:59.699Z,27.43
2019-02-06T20:22:30.061Z,28.93
2019-02-06T20:25:00.391Z,25.27
2019-02-06T20:27:30.911Z,25.67
2019-02-06T20:30:00.984Z,27.23
2019-02-06T20:32:30.902Z,25.40
2019-02-06T20:35:00.994Z,26.17
2019-02-06T20:37:30.951Z,25.67
2019-02-06T20:40:00.936Z,27.20
2019-02-06T20:42:31.061Z,26.63
2019-02-06T20:45:01.347Z,26.00
2019-02-06T20:47:33.706Z,26.23
2019-02-06T20:50:05.052Z,23.57
2019-02-06T20:52:35.194Z,25.20
2019-02-06T20:55:06.516Z,24.23
2019-02-06T20:57:36.860Z,25.03
2019-02-06T21:00:12.057Z,24.53
2019-02-06T21:02:42.133Z,25.67
2019-02-06T21:05:12.921Z,24.70
2019-02-06T21:07:46.060Z,23.93
2019-02-06T21:10:20.608Z,24.63
2019-02-06T21:12:50.824Z,24.60
2019-02-06T21:15:20.923Z,23.17
2019-02-06T21:17:51.288Z,22.17
2019-02-06T21:20:22.235Z,22.20
2019-02-06T21:22:52.472Z,22.27
2019-02-06T21:25:23.216Z,22.67
2019-02-06T21:27:53.325Z,21.37
2019-02-06T21:30:25.994Z,20.83
2019-02-06T21:32:56.533Z,21.27
2019-02-06T21:35:26.623Z,21.30
2019-02-06T21:37:57.191Z,22.67
2019-02-06T21:40:29.218Z,24.23
2019-02-06T21:42:59.467Z,23.73
2019-02-06T21:45:29.842Z,24.23
2019-02-06T21:47:59.708Z,25.80
2019-02-06T21:50:30.414Z,24.27
2019-02-06T21:53:00.787Z,24.67
2019-02-06T21:55:31.032Z,25.23
2019-02-06T21:58:01.159Z,25.80
2019-02-06T22:00:33.822Z,25.67
2019-02-06T22:03:04.708Z,25.17
2019-02-06T22:05:35.119Z,25.23
2019-02-06T22:08:05.656Z,25.03
2019-02-06T22:10:35.695Z,23.27
2019-02-06T22:13:06.282Z,23.43
2019-02-06T22:15:36.376Z,25.17
2019-02-06T22:18:06.987Z,25.40
2019-02-06T22:20:36.901Z,26.67
2019-02-06T22:23:06.886Z,26.30
2019-02-06T22:25:36.917Z,23.80
2019-02-06T22:28:07.217Z,24.03
2019-02-06T22:30:37.595Z,21.47
2019-02-06T22:33:08.418Z,23.93
2019-02-06T22:35:38.483Z,26.20
2019-02-06T22:38:08.930Z,27.20
2019-02-06T22:40:38.825Z,26.23
2019-02-06T22:43:09.138Z,26.20
2019-02-06T22:45:39.222Z,24.90
2019-02-06T22:48:09.169Z,27.10
2019-02-06T22:50:39.192Z,26.87
2019-02-06T22:53:09.370Z,25.73
2019-02-06T22:55:39.757Z,26.40
2019-02-06T22:58:09.910Z,26.07
2019-02-06T23:00:52.450Z,26.23
2019-02-06T23:03:29.660Z,25.47
2019-02-06T23:05:59.613Z,25.93
2019-02-06T23:08:30.397Z,23.47
2019-02-06T23:11:00.949Z,23.40
2019-02-06T23:13:31.058Z,24.13
2019-02-06T23:16:00.972Z,25.47
2019-02-06T23:18:30.929Z,26.53
2019-02-06T23:21:01.100Z,25.40
2019-02-06T23:23:31.115Z,26.80
2019-02-06T23:26:00.976Z,25.33
2019-02-06T23:28:31.099Z,23.43
2019-02-06T23:31:01.411Z,28.23
2019-02-06T23:33:31.378Z,24.73
2019-02-06T23:36:01.648Z,26.57
2019-02-06T23:38:32.159Z,25.43
2019-02-06T23:41:02.199Z,26.83
2019-02-06T23:43:32.299Z,25.20
2019-02-06T23:46:02.359Z,24.23
2019-02-06T23:48:32.705Z,25.33
2019-02-06T23:51:02.799Z,26.10
2019-02-06T23:53:45.111Z,24.43
2019-02-06T23:56:15.123Z,23.77
2019-02-06T23:58:49.512Z,23.67
